Time;durP1;ratioP1;P1;durP2;ratioP2;P2;SDS_P1;SDS_P2;PMS_P1;PMS_P2;Temp;Humidity;BMP_temperature;BMP_pressure;BME280_temperature;BME280_humidity;BME280_pressure;Samples;Min_cycle;Max_cycle;Signal;HPM_P1;HPM_P2
2023/04/11 00:02:16;;;;;;;6.73;5.90;;;11.70;99.90;;;;;;5061471;28;20629;-70
2023/04/11 00:04:42;;;;;;;7.47;6.00;;;11.70;99.90;;;;;;5062091;28;20449;-70
2023/04/11 00:07:08;;;;;;;6.60;5.67;;;11.60;99.90;;;;;;5067482;28;20590;-69
2023/04/11 00:09:34;;;;;;;8.20;6.43;;;11.70;99.90;;;;;;5063936;28;20190;-71
2023/04/11 00:12:00;;;;;;;9.90;6.43;;;11.60;99.90;;;;;;5065812;28;20228;-70
2023/04/11 00:14:27;;;;;;;6.73;5.57;;;11.60;99.90;;;;;;5064966;28;20434;-68
2023/04/11 00:16:53;;;;;;;6.03;5.50;;;11.60;99.90;;;;;;5064086;28;20795;-70
2023/04/11 00:19:22;;;;;;;7.43;5.97;;;11.50;99.90;;;;;;5065370;28;20428;-70
2023/04/11 00:21:48;;;;;;;8.50;5.67;;;11.50;99.90;;;;;;5063452;28;20415;-69
2023/04/11 00:24:14;;;;;;;6.93;6.13;;;11.50;99.90;;;;;;5065594;28;20455;-69
2023/04/11 00:26:39;;;;;;;7.20;6.47;;;11.50;99.90;;;;;;5064486;28;20452;-69
2023/04/11 00:29:05;;;;;;;6.40;5.60;;;11.50;99.90;;;;;;5065091;28;20192;-70
2023/04/11 00:31:31;;;;;;;5.80;5.20;;;11.50;99.90;;;;;;5063840;28;20253;-69
2023/04/11 00:33:57;;;;;;;7.33;6.00;;;11.50;99.90;;;;;;5064086;28;20179;-70
2023/04/11 00:36:22;;;;;;;7.30;6.57;;;11.50;99.90;;;;;;5065224;28;20586;-69
2023/04/11 00:38:48;;;;;;;8.17;5.70;;;11.40;99.90;;;;;;5062670;28;20272;-70
2023/04/11 00:41:14;;;;;;;5.87;5.30;;;11.40;99.90;;;;;;5064736;28;20330;-71
2023/04/11 00:43:39;;;;;;;7.20;5.43;;;11.40;99.90;;;;;;5062833;28;20182;-70
2023/04/11 00:46:07;;;;;;;6.60;5.80;;;11.40;99.90;;;;;;5066647;28;20597;-69
2023/04/11 00:48:34;;;;;;;5.87;4.50;;;11.30;99.90;;;;;;5056352;28;20214;-69
2023/04/11 00:51:00;;;;;;;8.03;6.20;;;11.30;99.90;;;;;;5062490;28;20456;-69
2023/04/11 00:53:31;;;;;;;10.27;5.90;;;11.30;99.90;;;;;;5067717;28;20929;-70
2023/04/11 00:55:58;;;;;;;7.10;5.83;;;11.30;99.90;;;;;;5061002;28;20485;-69
2023/04/11 00:58:24;;;;;;;6.90;5.37;;;11.30;99.90;;;;;;5067778;28;20420;-70
2023/04/11 01:00:50;;;;;;;7.30;6.00;;;11.30;99.90;;;;;;5060863;28;20452;-69
2023/04/11 01:03:17;;;;;;;7.40;6.10;;;11.20;99.90;;;;;;5062191;28;20633;-69
2023/04/11 01:05:43;;;;;;;5.50;4.93;;;11.20;99.90;;;;;;5051940;28;20432;-69
2023/04/11 01:08:10;;;;;;;7.30;6.40;;;11.20;99.90;;;;;;5075934;28;20548;-71
2023/04/11 01:10:37;;;;;;;6.37;5.60;;;11.10;99.90;;;;;;5065486;28;20437;-69
2023/04/11 01:13:02;;;;;;;8.20;5.63;;;11.10;99.90;;;;;;5061883;28;20412;-71
2023/04/11 01:15:28;;;;;;;6.80;5.90;;;11.10;99.90;;;;;;5061439;28;20421;-71
2023/04/11 01:17:54;;;;;;;6.30;5.70;;;11.10;99.90;;;;;;5063780;28;20189;-69
2023/04/11 01:20:20;;;;;;;7.27;5.40;;;11.10;99.90;;;;;;5064014;28;20198;-69
2023/04/11 01:22:48;;;;;;;9.20;7.20;;;11.10;99.90;;;;;;5061032;28;20417;-69
2023/04/11 01:25:14;;;;;;;5.47;4.97;;;11.00;99.90;;;;;;5064076;28;20400;-70
2023/04/11 01:27:41;;;;;;;7.17;5.90;;;11.10;99.90;;;;;;5062357;28;20479;-69
2023/04/11 01:30:07;;;;;;;6.73;4.53;;;11.20;99.90;;;;;;5063966;28;20911;-70
2023/04/11 01:32:33;;;;;;;8.73;6.03;;;11.10;99.90;;;;;;5063478;28;20864;-69
2023/04/11 01:35:00;;;;;;;8.50;6.00;;;11.10;99.90;;;;;;5063909;28;20492;-69
2023/04/11 01:37:26;;;;;;;7.53;6.23;;;11.10;99.90;;;;;;5063229;28;20925;-69
2023/04/11 01:39:51;;;;;;;6.30;5.70;;;11.10;99.90;;;;;;5062567;28;20428;-70
2023/04/11 01:42:18;;;;;;;5.73;5.13;;;11.00;99.90;;;;;;5064174;28;20645;-70
2023/04/11 01:44:45;;;;;;;7.10;5.97;;;11.10;99.90;;;;;;5062871;28;20633;-70
2023/04/11 01:47:10;;;;;;;7.00;5.80;;;11.00;99.90;;;;;;5062501;28;20428;-69
2023/04/11 01:49:37;;;;;;;7.00;5.30;;;11.00;99.90;;;;;;5063384;28;20440;-69
2023/04/11 01:52:02;;;;;;;8.30;6.60;;;11.00;99.90;;;;;;5063851;28;20179;-70
2023/04/11 01:54:28;;;;;;;6.03;5.33;;;11.00;99.90;;;;;;5062868;28;20440;-70
2023/04/11 01:56:53;;;;;;;7.60;6.40;;;11.00;99.90;;;;;;5062555;28;20185;-70
2023/04/11 01:59:19;;;;;;;11.03;6.30;;;11.00;99.90;;;;;;5063621;28;20721;-70
2023/04/11 02:01:45;;;;;;;6.63;5.53;;;11.00;99.90;;;;;;5062548;28;20177;-69
2023/04/11 02:04:10;;;;;;;8.60;6.43;;;11.00;99.90;;;;;;5063686;28;20243;-69
2023/04/11 02:06:37;;;;;;;6.43;5.73;;;11.00;99.90;;;;;;5063813;28;20245;-70
2023/04/11 02:09:03;;;;;;;7.83;6.60;;;11.00;99.90;;;;;;5061939;28;20252;-70
2023/04/11 02:11:28;;;;;;;6.37;5.77;;;11.00;99.90;;;;;;5062645;28;20473;-70
2023/04/11 02:13:54;;;;;;;6.67;5.50;;;11.00;99.90;;;;;;5063154;28;20178;-69
2023/04/11 02:16:24;;;;;;;7.40;6.00;;;11.00;99.90;;;;;;5063198;28;20499;-69
2023/04/11 02:18:51;;;;;;;6.60;5.97;;;11.00;99.90;;;;;;5057453;28;20520;-69
2023/04/11 02:21:16;;;;;;;7.00;5.13;;;11.00;99.90;;;;;;5064579;28;20531;-69
2023/04/11 02:23:42;;;;;;;6.87;5.57;;;11.00;99.90;;;;;;5060393;28;20489;-70
2023/04/11 02:26:08;;;;;;;7.17;5.33;;;11.00;99.90;;;;;;5064036;28;20182;-69
2023/04/11 02:28:35;;;;;;;7.10;5.50;;;11.00;99.90;;;;;;5061112;28;20210;-69
2023/04/11 02:31:01;;;;;;;6.17;5.57;;;10.90;99.90;;;;;;5057432;28;20428;-68
2023/04/11 02:33:27;;;;;;;7.10;6.00;;;10.90;99.90;;;;;;5046517;28;20733;-70
2023/04/11 02:35:53;;;;;;;7.33;6.27;;;10.80;99.90;;;;;;5061152;28;20743;-70
2023/04/11 02:38:19;;;;;;;7.00;5.60;;;10.80;99.90;;;;;;5062714;28;20412;-70
2023/04/11 02:40:45;;;;;;;8.57;6.00;;;10.80;99.90;;;;;;5061302;28;20661;-69
2023/04/11 02:43:11;;;;;;;8.60;6.33;;;10.90;99.90;;;;;;5062416;28;20551;-68
2023/04/11 02:45:37;;;;;;;8.07;6.00;;;10.80;99.90;;;;;;5062000;28;20424;-69
2023/04/11 02:48:02;;;;;;;7.27;5.20;;;10.80;99.90;;;;;;5062141;28;20202;-70
2023/04/11 02:50:28;;;;;;;7.70;5.50;;;10.80;99.90;;;;;;5061448;28;20194;-69
2023/04/11 02:52:54;;;;;;;7.77;6.03;;;10.70;99.90;;;;;;5061140;28;20184;-68
2023/04/11 02:55:22;;;;;;;7.27;5.43;;;10.70;99.90;;;;;;5062136;28;20178;-69
2023/04/11 02:57:48;;;;;;;7.60;6.20;;;10.70;99.90;;;;;;5060907;28;20189;-70
2023/04/11 03:00:13;;;;;;;8.07;7.00;;;10.60;99.90;;;;;;5061710;28;20471;-69
2023/04/11 03:02:40;;;;;;;8.00;5.50;;;10.70;99.90;;;;;;5063698;28;20420;-69
2023/04/11 03:05:06;;;;;;;11.50;5.97;;;10.60;99.90;;;;;;5061903;28;20235;-69
2023/04/11 03:07:32;;;;;;;7.87;6.47;;;10.60;99.90;;;;;;5060559;28;20865;-69
2023/04/11 03:09:58;;;;;;;8.60;6.30;;;10.60;99.90;;;;;;5061415;28;20464;-69
2023/04/11 03:12:25;;;;;;;8.00;6.50;;;10.60;99.90;;;;;;5055097;28;20660;-70
2023/04/11 03:14:51;;;;;;;6.67;5.73;;;10.60;99.90;;;;;;5065257;28;20424;-69
2023/04/11 03:17:16;;;;;;;7.50;5.77;;;10.60;99.90;;;;;;5058319;28;20422;-69
2023/04/11 03:19:42;;;;;;;8.60;6.10;;;10.60;99.90;;;;;;5060972;28;20778;-70
2023/04/11 03:22:10;;;;;;;7.97;6.30;;;10.60;99.90;;;;;;5060054;28;20251;-70
2023/04/11 03:24:38;;;;;;;7.40;5.60;;;10.60;99.90;;;;;;5059945;28;20224;-68
2023/04/11 03:27:04;;;;;;;8.73;6.60;;;10.60;99.90;;;;;;5062833;28;20486;-69
2023/04/11 03:29:31;;;;;;;7.00;6.23;;;10.60;99.90;;;;;;5058917;28;20835;-69
2023/04/11 03:31:57;;;;;;;7.37;6.00;;;10.60;99.90;;;;;;5064647;28;20484;-69
2023/04/11 03:34:24;;;;;;;9.83;7.00;;;10.60;99.90;;;;;;5056440;28;20495;-69
2023/04/11 03:36:50;;;;;;;6.73;5.50;;;10.60;99.90;;;;;;5061632;28;20409;-70
2023/04/11 03:39:16;;;;;;;6.67;5.57;;;10.60;99.90;;;;;;5061047;28;20835;-69
2023/04/11 03:41:41;;;;;;;9.40;7.03;;;10.60;99.90;;;;;;5060819;28;20179;-70
2023/04/11 03:44:07;;;;;;;7.23;5.50;;;10.70;99.90;;;;;;5061393;28;20170;-70
2023/04/11 03:46:32;;;;;;;7.67;6.57;;;10.60;99.90;;;;;;5061213;28;20611;-69
2023/04/11 03:48:58;;;;;;;7.33;6.30;;;10.60;99.90;;;;;;5059989;28;20299;-70
2023/04/11 03:51:25;;;;;;;6.13;5.53;;;10.60;99.90;;;;;;5059824;28;20559;-69
2023/04/11 03:53:51;;;;;;;8.17;5.93;;;10.60;99.90;;;;;;5061509;28;20645;-70
2023/04/11 03:56:16;;;;;;;6.37;5.73;;;10.60;99.90;;;;;;5061281;28;20507;-69
2023/04/11 03:58:42;;;;;;;9.80;6.30;;;10.60;99.90;;;;;;5060498;28;20496;-70
2023/04/11 04:01:08;;;;;;;6.70;5.90;;;10.60;99.90;;;;;;5059965;28;20764;-68
2023/04/11 04:03:33;;;;;;;8.80;6.47;;;10.60;99.90;;;;;;5061198;28;20660;-70
2023/04/11 04:05:59;;;;;;;9.10;6.67;;;10.60;99.90;;;;;;5061306;28;20219;-70
2023/04/11 04:08:24;;;;;;;7.80;6.23;;;10.50;99.90;;;;;;5059443;28;20268;-71
2023/04/11 04:10:50;;;;;;;7.77;5.93;;;10.40;99.90;;;;;;5061857;28;20202;-70
2023/04/11 04:13:15;;;;;;;9.37;6.60;;;10.40;99.90;;;;;;5061112;28;20205;-69
2023/04/11 04:15:41;;;;;;;6.83;6.10;;;10.30;99.90;;;;;;5060251;28;20171;-69
2023/04/11 04:18:07;;;;;;;6.33;5.17;;;10.40;99.90;;;;;;5050156;28;20201;-69
2023/04/11 04:20:32;;;;;;;6.40;5.80;;;10.40;99.90;;;;;;5062200;28;20221;-71
2023/04/11 04:22:59;;;;;;;9.10;6.70;;;10.30;99.90;;;;;;5058388;28;20182;-70
2023/04/11 04:25:24;;;;;;;9.03;6.30;;;10.30;99.90;;;;;;5065337;28;20177;-69
2023/04/11 04:27:52;;;;;;;7.37;6.30;;;10.30;99.90;;;;;;5057488;28;20935;-70
2023/04/11 04:30:20;;;;;;;6.70;5.90;;;10.30;99.90;;;;;;5065813;28;20306;-67
2023/04/11 04:32:46;;;;;;;7.33;5.40;;;10.30;99.90;;;;;;5057951;28;21053;-70
2023/04/11 04:35:15;;;;;;;8.80;6.57;;;10.30;99.90;;;;;;5068698;22;21080;-69
2023/04/11 04:37:44;;;;;;;8.30;6.10;;;10.30;99.90;;;;;;5034730;28;20178;-68
2023/04/11 04:40:14;;;;;;;7.50;5.60;;;10.20;99.90;;;;;;5052487;28;20409;-68
2023/04/11 04:42:41;;;;;;;7.80;5.87;;;10.10;99.90;;;;;;5067559;28;20409;-69
2023/04/11 04:45:08;;;;;;;9.73;7.27;;;10.00;99.90;;;;;;5066807;28;20787;-70
2023/04/11 04:47:35;;;;;;;7.90;6.63;;;9.90;99.90;;;;;;5062358;28;20402;-69
2023/04/11 04:50:01;;;;;;;7.73;6.93;;;9.80;99.90;;;;;;5062792;28;20417;-68
2023/04/11 04:52:28;;;;;;;6.90;6.20;;;9.70;99.90;;;;;;5068830;28;20428;-69
2023/04/11 04:54:57;;;;;;;7.33;5.87;;;9.60;99.90;;;;;;5065496;28;20942;-68
2023/04/11 04:57:28;;;;;;;9.17;7.47;;;9.50;99.90;;;;;;5069622;28;20477;-69
2023/04/11 04:59:54;;;;;;;10.50;6.00;;;9.50;99.90;;;;;;5054574;28;20424;-69
2023/04/11 05:02:20;;;;;;;7.70;6.90;;;9.40;99.90;;;;;;5066635;28;20558;-69
2023/04/11 05:04:47;;;;;;;11.40;7.03;;;9.40;99.90;;;;;;5065145;28;20455;-69
2023/04/11 05:07:13;;;;;;;12.30;7.30;;;9.40;99.90;;;;;;5064431;28;20183;-71
2023/04/11 05:09:39;;;;;;;7.63;6.07;;;9.30;99.90;;;;;;5054607;28;20454;-71
2023/04/11 05:12:05;;;;;;;8.93;6.43;;;9.30;99.90;;;;;;5060130;28;20236;-70
2023/04/11 05:14:31;;;;;;;7.73;6.67;;;9.30;99.90;;;;;;5056329;28;20433;-71
2023/04/11 05:16:56;;;;;;;8.73;7.00;;;9.20;99.90;;;;;;5061173;28;20520;-69
2023/04/11 05:19:22;;;;;;;9.07;6.53;;;9.20;99.90;;;;;;5053784;28;20316;-69
2023/04/11 05:21:47;;;;;;;9.80;7.43;;;9.20;99.90;;;;;;5056157;28;20174;-69
2023/04/11 05:24:13;;;;;;;8.53;6.80;;;9.20;99.90;;;;;;5059543;28;20606;-71
2023/04/11 05:26:39;;;;;;;7.70;6.33;;;9.20;99.90;;;;;;5061798;28;20183;-69
2023/04/11 05:29:05;;;;;;;8.83;7.07;;;9.20;99.90;;;;;;5059392;28;20186;-70
2023/04/11 05:31:31;;;;;;;7.90;6.63;;;9.20;99.90;;;;;;5064312;28;20187;-69
2023/04/11 05:33:57;;;;;;;9.73;6.57;;;9.20;99.90;;;;;;5065468;28;20441;-69
2023/04/11 05:36:23;;;;;;;10.57;6.70;;;9.20;99.90;;;;;;5070428;28;20531;-72
2023/04/11 05:38:49;;;;;;;9.93;6.83;;;9.10;99.90;;;;;;5061402;28;20433;-69
2023/04/11 05:41:15;;;;;;;7.80;6.10;;;9.10;99.90;;;;;;5053733;28;20548;-69
2023/04/11 05:43:40;;;;;;;8.87;6.70;;;9.10;99.90;;;;;;5064656;28;20408;-69
2023/04/11 05:46:06;;;;;;;9.60;7.47;;;9.10;99.90;;;;;;5059416;28;20172;-70
2023/04/11 05:48:32;;;;;;;9.10;7.03;;;9.10;99.90;;;;;;5069006;28;20652;-69
2023/04/11 05:50:59;;;;;;;9.73;6.20;;;9.10;99.90;;;;;;5061317;28;20829;-70
2023/04/11 05:53:25;;;;;;;8.93;7.40;;;9.10;99.90;;;;;;5067186;28;20182;-68
2023/04/11 05:55:50;;;;;;;11.17;7.20;;;9.00;99.90;;;;;;5053231;28;20426;-69
2023/04/11 05:58:16;;;;;;;11.27;7.50;;;9.10;99.90;;;;;;5067389;28;20927;-69
2023/04/11 06:00:41;;;;;;;10.87;6.50;;;9.00;99.90;;;;;;5062137;28;20256;-68
2023/04/11 06:03:08;;;;;;;8.63;7.00;;;9.10;99.90;;;;;;5067030;28;20169;-69
2023/04/11 06:05:34;;;;;;;9.17;6.80;;;9.00;99.90;;;;;;5051574;28;20246;-69
2023/04/11 06:08:01;;;;;;;8.43;6.90;;;9.00;99.90;;;;;;5040552;28;20461;-69
2023/04/11 06:10:28;;;;;;;9.50;7.57;;;9.00;99.90;;;;;;5043398;28;21010;-70
2023/04/11 06:12:54;;;;;;;12.50;8.80;;;9.00;99.90;;;;;;5046132;28;20422;-70
2023/04/11 06:15:21;;;;;;;11.03;7.80;;;9.10;99.90;;;;;;5044188;28;20557;-69
2023/04/11 06:17:47;;;;;;;12.27;7.37;;;9.10;99.90;;;;;;5044634;28;20908;-69
2023/04/11 06:20:13;;;;;;;12.03;7.83;;;9.20;99.90;;;;;;5044623;28;20418;-70
2023/04/11 06:22:39;;;;;;;10.00;8.20;;;9.30;99.90;;;;;;5052032;28;20171;-68
2023/04/11 06:25:05;;;;;;;9.30;7.03;;;9.30;99.90;;;;;;5041453;28;20422;-68
2023/04/11 06:27:31;;;;;;;12.03;6.63;;;9.40;99.90;;;;;;5065522;28;20414;-70
2023/04/11 06:29:57;;;;;;;9.10;6.90;;;9.40;99.90;;;;;;5038193;28;20428;-69
2023/04/11 06:32:24;;;;;;;8.33;6.27;;;9.40;99.90;;;;;;5038989;28;20414;-69
2023/04/11 06:34:53;;;;;;;9.80;6.77;;;9.50;99.90;;;;;;5046030;28;20745;-71
2023/04/11 06:37:19;;;;;;;8.70;6.50;;;9.50;99.90;;;;;;5040142;28;20851;-68
2023/04/11 06:39:45;;;;;;;7.70;6.80;;;9.50;99.90;;;;;;5046355;28;20921;-68
2023/04/11 06:42:10;;;;;;;10.40;7.03;;;9.50;99.90;;;;;;5041124;28;20420;-68
2023/04/11 06:44:36;;;;;;;8.03;6.30;;;9.40;99.90;;;;;;5050494;28;20700;-68
2023/04/11 06:47:02;;;;;;;8.90;6.87;;;9.40;99.90;;;;;;5035551;28;20548;-71
2023/04/11 06:49:28;;;;;;;11.40;8.00;;;9.40;99.90;;;;;;5041980;28;20186;-70
2023/04/11 06:51:54;;;;;;;9.53;7.37;;;9.30;99.90;;;;;;5047293;28;20411;-69
2023/04/11 06:54:21;;;;;;;11.03;7.87;;;9.40;99.90;;;;;;5051760;28;20443;-70
2023/04/11 06:56:49;;;;;;;12.80;7.40;;;9.40;99.90;;;;;;5057492;28;20464;-69
2023/04/11 06:59:18;;;;;;;9.33;7.53;;;9.40;99.90;;;;;;5049896;28;20417;-68
2023/04/11 07:01:43;;;;;;;8.77;7.87;;;9.40;99.90;;;;;;5036490;28;20429;-67
2023/04/11 07:04:11;;;;;;;13.27;8.90;;;9.40;99.90;;;;;;5036376;28;20459;-68
2023/04/11 07:06:37;;;;;;;11.13;6.90;;;9.40;99.90;;;;;;5041330;28;20235;-68
2023/04/11 07:09:04;;;;;;;10.67;7.57;;;9.50;99.90;;;;;;5038308;28;20491;-68
2023/04/11 07:11:30;;;;;;;11.63;8.17;;;9.60;99.90;;;;;;5046010;28;20175;-66
2023/04/11 07:13:58;;;;;;;11.10;9.90;;;9.50;99.90;;;;;;5041335;28;20433;-67
2023/04/11 07:16:24;;;;;;;12.17;7.83;;;9.60;99.90;;;;;;5036629;28;20412;-69
2023/04/11 07:18:50;;;;;;;8.80;7.57;;;9.70;99.90;;;;;;5039297;28;20417;-69
2023/04/11 07:21:16;;;;;;;10.00;8.20;;;9.80;99.90;;;;;;5055539;28;20422;-71
2023/04/11 07:23:42;;;;;;;10.57;7.30;;;9.80;99.90;;;;;;5048604;28;20910;-70
2023/04/11 07:26:09;;;;;;;12.10;8.27;;;9.90;99.90;;;;;;5041600;28;20270;-70
2023/04/11 07:28:39;;;;;;;8.60;7.60;;;9.90;99.90;;;;;;5043938;28;20982;-70
2023/04/11 07:31:06;;;;;;;9.03;7.20;;;10.00;99.90;;;;;;5038096;28;20435;-68
2023/04/11 07:33:33;;;;;;;8.33;6.63;;;10.10;99.90;;;;;;5040879;28;20402;-69
2023/04/11 07:35:59;;;;;;;9.73;7.20;;;10.00;99.90;;;;;;5039975;28;20825;-68
2023/04/11 07:38:30;;;;;;;15.40;7.33;;;10.00;99.90;;;;;;5040357;28;20410;-68
2023/04/11 07:40:57;;;;;;;11.57;7.40;;;10.00;99.90;;;;;;5054325;28;20448;-69
2023/04/11 07:43:23;;;;;;;7.60;5.77;;;10.00;99.90;;;;;;5045082;28;20411;-68
2023/04/11 07:45:49;;;;;;;8.00;5.83;;;10.00;99.90;;;;;;5034129;28;20514;-68
2023/04/11 07:48:15;;;;;;;12.30;7.63;;;10.20;99.90;;;;;;5035816;28;20548;-68
2023/04/11 07:50:40;;;;;;;7.87;6.57;;;10.20;99.90;;;;;;5044896;28;20171;-69
2023/04/11 07:53:06;;;;;;;9.07;6.20;;;10.20;99.90;;;;;;5041600;28;20892;-69
2023/04/11 07:55:32;;;;;;;8.00;6.00;;;10.30;99.90;;;;;;5042210;28;20197;-74
2023/04/11 07:57:58;;;;;;;8.50;6.17;;;10.40;99.90;;;;;;5049354;28;20412;-73
2023/04/11 08:00:24;;;;;;;9.90;5.97;;;10.50;99.90;;;;;;5065795;28;20425;-64
2023/04/11 08:02:51;;;;;;;7.03;5.97;;;10.60;99.90;;;;;;5037142;28;20172;-68
2023/04/11 08:05:16;;;;;;;7.73;6.30;;;10.50;99.90;;;;;;5050756;28;20276;-70
2023/04/11 08:07:42;;;;;;;8.10;5.93;;;10.50;99.90;;;;;;5041084;28;20932;-70
2023/04/11 08:10:08;;;;;;;10.73;6.20;;;10.50;99.90;;;;;;5047436;28;20170;-70
2023/04/11 08:12:34;;;;;;;7.40;5.87;;;10.50;99.90;;;;;;5049306;28;20630;-69
2023/04/11 08:15:00;;;;;;;6.70;5.80;;;10.50;99.90;;;;;;5047793;28;20425;-69
2023/04/11 08:17:27;;;;;;;7.40;5.53;;;10.50;99.90;;;;;;5034752;28;20168;-70
2023/04/11 08:19:56;;;;;;;9.70;6.10;;;10.60;99.90;;;;;;5040613;28;20398;-69
2023/04/11 08:22:22;;;;;;;6.80;5.80;;;10.50;99.90;;;;;;5033735;28;20505;-70
2023/04/11 08:24:48;;;;;;;6.97;5.10;;;10.40;99.90;;;;;;5040904;28;20433;-69
2023/04/11 08:27:14;;;;;;;9.23;5.37;;;10.20;99.90;;;;;;5042749;28;20776;-69
2023/04/11 08:29:39;;;;;;;6.60;4.60;;;10.20;99.90;;;;;;5046804;28;20214;-69
2023/04/11 08:32:05;;;;;;;8.00;5.07;;;10.00;99.90;;;;;;5044404;28;20484;-69
2023/04/11 08:34:31;;;;;;;5.90;3.60;;;9.90;99.90;;;;;;5039568;28;20211;-72
2023/04/11 08:36:57;;;;;;;5.43;3.50;;;9.70;99.90;;;;;;5041571;28;20196;-72
2023/04/11 08:39:23;;;;;;;5.40;2.90;;;9.60;99.90;;;;;;5041339;28;20434;-70
2023/04/11 08:41:49;;;;;;;4.47;3.20;;;9.70;99.90;;;;;;5049622;28;20181;-70
2023/04/11 08:44:14;;;;;;;2.40;2.20;;;9.60;99.90;;;;;;5043585;28;20284;-71
2023/04/11 08:46:42;;;;;;;3.83;2.70;;;9.60;99.90;;;;;;5044949;28;20497;-70
2023/04/11 08:49:08;;;;;;;4.53;3.60;;;9.80;99.90;;;;;;5042872;28;20599;-72
2023/04/11 08:51:33;;;;;;;5.50;3.90;;;9.90;99.90;;;;;;5052343;28;20408;-71
2023/04/11 08:54:04;;;;;;;6.00;3.77;;;9.70;99.90;;;;;;5043715;28;20418;-69
2023/04/11 08:56:30;;;;;;;7.57;3.90;;;9.80;99.90;;;;;;5043014;28;20660;-71
2023/04/11 08:58:56;;;;;;;5.13;3.20;;;10.00;99.90;;;;;;5039395;28;20503;-70
2023/04/11 09:01:30;;;;;;;4.67;3.50;;;10.10;99.90;;;;;;5041458;28;20865;-71
2023/04/11 09:04:05;;;;;;;5.37;3.70;;;10.10;99.90;;;;;;5038361;28;20190;-69
2023/04/11 09:06:32;;;;;;;7.53;2.90;;;10.10;99.90;;;;;;5040439;28;20421;-69
2023/04/11 09:08:59;;;;;;;4.90;2.70;;;10.20;99.90;;;;;;5035964;28;20460;-73
2023/04/11 09:11:26;;;;;;;4.13;2.30;;;9.90;99.90;;;;;;5040568;28;20433;-68
2023/04/11 09:14:08;;;;;;;2.37;1.73;;;10.00;99.90;;;;;;5053954;28;20459;-68
2023/04/11 09:16:34;;;;;;;5.60;2.47;;;10.20;99.90;;;;;;5047812;28;20753;-69
2023/04/11 09:19:00;;;;;;;11.03;3.50;;;10.40;99.90;;;;;;5044069;28;20418;-70
2023/04/11 09:21:29;;;;;;;7.67;2.67;;;10.50;99.90;;;;;;5044028;28;20417;-71
2023/04/11 09:24:14;;;;;;;3.00;2.30;;;10.80;99.90;;;;;;5046732;28;20498;-70
2023/04/11 09:26:39;;;;;;;4.70;2.53;;;11.20;99.90;;;;;;5042238;28;20434;-69
2023/04/11 09:29:05;;;;;;;9.67;2.30;;;11.30;99.90;;;;;;5049221;28;20512;-69
2023/04/11 09:31:44;;;;;;;4.20;2.23;;;11.20;99.90;;;;;;5048712;28;20175;-70
2023/04/11 09:34:11;;;;;;;1.90;1.70;;;11.20;99.90;;;;;;5042248;28;20586;-68
2023/04/11 09:36:37;;;;;;;2.03;1.60;;;11.30;99.90;;;;;;5039699;28;20472;-70
2023/04/11 09:39:16;;;;;;;2.80;2.03;;;11.50;99.90;;;;;;5038090;28;20472;-70
2023/04/11 09:41:42;;;;;;;4.97;1.70;;;11.70;99.90;;;;;;5053073;28;20414;-70
2023/04/11 09:44:08;;;;;;;2.20;2.00;;;11.70;99.90;;;;;;5043333;28;20532;-70
2023/04/11 09:46:33;;;;;;;9.87;2.37;;;12.40;99.90;;;;;;5049131;28;20188;-69
2023/04/11 09:49:01;;;;;;;3.20;2.57;;;12.50;99.90;;;;;;5055800;28;20282;-69
2023/04/11 09:51:28;;;;;;;4.07;2.47;;;12.40;99.90;;;;;;5035109;28;20191;-71
2023/04/11 09:53:54;;;;;;;6.80;2.00;;;12.10;99.90;;;;;;5040157;28;21047;-69
2023/04/11 09:56:20;;;;;;;6.00;2.30;;;11.80;99.90;;;;;;5039850;28;20417;-70
2023/04/11 09:58:47;;;;;;;5.37;1.93;;;11.90;99.90;;;;;;5050370;28;20415;-70
2023/04/11 10:01:14;;;;;;;2.67;2.10;;;12.10;99.90;;;;;;5042882;28;20763;-69
2023/04/11 10:03:40;;;;;;;4.57;2.07;;;12.50;99.90;;;;;;5047164;28;20931;-70
2023/04/11 10:06:11;;;;;;;3.43;1.83;;;12.40;99.90;;;;;;5038387;28;20398;-70
2023/04/11 10:08:40;;;;;;;4.07;2.00;;;12.70;99.90;;;;;;5037215;28;20457;-69
2023/04/11 10:11:13;;;;;;;6.30;2.20;;;12.50;99.90;;;;;;5043045;28;20468;-70
2023/04/11 10:13:45;;;;;;;5.27;1.80;;;12.20;99.90;;;;;;5039205;28;20928;-69
2023/04/11 10:16:12;;;;;;;3.53;1.40;;;12.80;99.90;;;;;;5046213;28;20406;-69
2023/04/11 10:18:52;;;;;;;3.30;1.60;;;12.90;99.90;;;;;;5041658;28;20525;-71
2023/04/11 10:21:31;;;;;;;6.43;2.07;;;12.90;99.90;;;;;;5035102;28;20414;-72
2023/04/11 10:24:06;;;;;;;9.30;2.57;;;13.00;99.90;;;;;;5040992;28;20564;-70
2023/04/11 10:26:44;;;;;;;1.90;1.80;;;12.90;99.90;;;;;;5037300;28;20793;-71
2023/04/11 10:29:39;;;;;;;1.87;1.50;;;13.40;99.90;;;;;;5049262;28;20451;-71
2023/04/11 10:32:19;;;;;;;1.83;1.50;;;13.40;99.90;;;;;;5056467;28;20474;-69
2023/04/11 10:35:09;;;;;;;2.27;1.67;;;13.40;99.90;;;;;;5052715;28;20479;-69
2023/04/11 10:37:35;;;;;;;3.10;1.97;;;13.10;99.90;;;;;;5038019;28;20469;-70
2023/04/11 10:40:05;;;;;;;2.27;1.60;;;13.40;99.90;;;;;;5041447;28;20406;-69
2023/04/11 10:42:33;;;;;;;3.00;1.83;;;13.90;99.90;;;;;;5036425;28;20768;-70
2023/04/11 10:45:22;;;;;;;4.10;1.87;;;14.10;99.90;;;;;;5041570;28;20462;-71
2023/04/11 10:47:50;;;;;;;2.93;1.47;;;14.50;99.90;;;;;;5046222;28;20401;-70
2023/04/11 10:50:25;;;;;;;2.53;1.73;;;14.20;99.90;;;;;;5042018;28;20473;-70
2023/04/11 10:52:55;;;;;;;4.03;1.90;;;14.10;99.90;;;;;;5052633;28;20771;-71
2023/04/11 10:55:21;;;;;;;2.03;1.70;;;14.60;99.90;;;;;;5031324;28;20418;-70
2023/04/11 10:58:06;;;;;;;7.80;2.40;;;14.30;99.90;;;;;;5041387;28;20466;-69
2023/04/11 11:00:48;;;;;;;3.03;1.77;;;14.30;99.90;;;;;;5046767;28;20438;-69
2023/04/11 11:03:32;;;;;;;3.63;1.70;;;14.60;99.90;;;;;;5041999;28;20428;-69
2023/04/11 11:06:04;;;;;;;2.23;1.33;;;14.90;99.90;;;;;;5044128;28;20547;-70
2023/04/11 11:08:33;;;;;;;1.90;1.80;;;14.20;99.90;;;;;;5042825;28;20467;-69
2023/04/11 11:11:01;;;;;;;2.00;1.60;;;13.80;99.90;;;;;;5037353;28;20403;-69
2023/04/11 11:13:44;;;;;;;1.37;1.27;;;13.70;99.90;;;;;;5036168;28;20402;-70
2023/04/11 11:16:18;;;;;;;2.10;1.40;;;13.50;99.90;;;;;;5041667;28;20435;-71
2023/04/11 11:18:52;;;;;;;3.90;1.40;;;13.30;99.90;;;;;;5045731;28;20503;-70
2023/04/11 11:21:20;;;;;;;2.60;1.23;;;13.40;99.90;;;;;;5046812;28;20417;-69
2023/04/11 11:24:02;;;;;;;1.90;1.40;;;13.70;99.90;;;;;;5039705;28;20809;-70
2023/04/11 11:26:35;;;;;;;1.50;1.40;;;13.80;99.90;;;;;;5040950;28;20413;-69
2023/04/11 11:29:02;;;;;;;1.63;1.50;;;13.80;99.90;;;;;;5037389;28;20463;-69
2023/04/11 11:31:45;;;;;;;3.40;1.50;;;14.10;99.90;;;;;;5040969;28;20413;-69
2023/04/11 11:34:11;;;;;;;2.20;1.30;;;14.30;99.90;;;;;;5046699;28;20530;-70
2023/04/11 11:36:42;;;;;;;3.63;1.30;;;14.30;99.90;;;;;;5047117;28;20410;-70
2023/04/11 11:39:09;;;;;;;3.40;1.03;;;14.30;99.90;;;;;;5035705;28;20620;-69
2023/04/11 11:41:39;;;;;;;1.93;1.10;;;14.10;99.90;;;;;;5036405;28;20465;-70
2023/04/11 11:44:05;;;;;;;2.23;1.23;;;14.50;99.90;;;;;;5042452;28;20438;-71
2023/04/11 11:46:34;;;;;;;2.20;1.27;;;14.50;99.90;;;;;;5040600;28;20419;-70
2023/04/11 11:49:02;;;;;;;1.73;1.10;;;14.40;99.90;;;;;;5038823;28;20188;-69
2023/04/11 11:51:48;;;;;;;2.13;1.97;;;14.60;99.90;;;;;;5046086;28;20904;-70
2023/04/11 11:54:14;;;;;;;4.43;1.33;;;14.60;99.90;;;;;;5043477;28;20976;-70
2023/04/11 11:56:39;;;;;;;1.77;1.10;;;14.90;99.90;;;;;;5037496;28;20405;-69
2023/04/11 11:59:06;;;;;;;4.60;1.47;;;14.30;99.90;;;;;;5038879;28;20217;-69
2023/04/11 12:01:36;;;;;;;2.13;1.40;;;14.20;99.90;;;;;;5038072;28;20791;-69
2023/04/11 12:04:05;;;;;;;2.30;1.30;;;14.00;99.90;;;;;;5043177;28;20434;-71
2023/04/11 12:06:31;;;;;;;3.33;1.37;;;13.90;99.90;;;;;;5047215;28;20417;-69
2023/04/11 12:09:29;;;;;;;1.87;1.40;;;13.90;99.90;;;;;;5052259;28;20975;-69
2023/04/11 12:11:55;;;;;;;1.30;1.20;;;13.30;99.90;;;;;;5036501;28;20410;-69
2023/04/11 12:14:23;;;;;;;1.03;0.90;;;13.00;99.90;;;;;;5058694;28;20441;-69
2023/04/11 12:16:53;;;;;;;1.83;1.27;;;13.30;99.90;;;;;;5041374;28;20403;-69
2023/04/11 12:19:18;;;;;;;1.87;1.70;;;13.00;99.90;;;;;;5047597;28;20402;-69
2023/04/11 12:21:44;;;;;;;2.83;1.37;;;12.70;99.90;;;;;;5048005;28;20408;-70
2023/04/11 12:24:10;;;;;;;1.90;1.23;;;12.60;99.90;;;;;;5053729;28;20197;-70
2023/04/11 12:26:35;;;;;;;3.40;1.60;;;12.30;99.90;;;;;;5042009;28;20405;-70
2023/04/11 12:29:02;;;;;;;5.40;2.00;;;12.10;99.90;;;;;;5040310;28;20250;-71
2023/04/11 12:31:28;;;;;;;1.23;1.13;;;12.00;99.90;;;;;;5042364;28;20186;-70
2023/04/11 12:33:53;;;;;;;1.20;0.90;;;12.10;99.90;;;;;;5045116;28;20429;-70
2023/04/11 12:36:20;;;;;;;2.87;1.47;;;12.50;99.90;;;;;;5047461;28;20931;-70
2023/04/11 12:38:46;;;;;;;1.63;1.53;;;13.10;99.90;;;;;;5056645;28;20170;-70
2023/04/11 12:41:11;;;;;;;2.40;1.37;;;13.00;99.90;;;;;;5036577;28;20415;-69
2023/04/11 12:43:37;;;;;;;2.23;1.27;;;12.90;99.90;;;;;;5043121;28;20601;-68
2023/04/11 12:46:03;;;;;;;1.90;1.33;;;12.80;99.90;;;;;;5067117;28;20179;-69
2023/04/11 12:48:28;;;;;;;2.40;1.80;;;12.50;99.90;;;;;;5048574;28;20254;-71
2023/04/11 12:50:54;;;;;;;2.90;1.43;;;12.50;99.90;;;;;;5049746;28;20605;-70